sensor_id;sensor_type;location;lat;lon;timestamp;P1;durP1;ratioP1;P2;durP2;ratioP2
10403;SDS011;5248;47.374;8.486;2023-09-18T00:01:44;6.95;;;3.33;;
10403;SDS011;5248;47.374;8.486;2023-09-18T00:04:10;7.43;;;3.47;;
10403;SDS011;5248;47.374;8.486;2023-09-18T00:06:37;7.82;;;3.35;;
10403;SDS011;5248;47.374;8.486;2023-09-18T00:09:04;4.57;;;3.00;;
10403;SDS011;5248;47.374;8.486;2023-09-18T00:11:32;5.90;;;3.30;;
10403;SDS011;5248;47.374;8.486;2023-09-18T00:13:58;8.15;;;3.10;;
10403;SDS011;5248;47.374;8.486;2023-09-18T00:16:24;9.30;;;3.35;;
10403;SDS011;5248;47.374;8.486;2023-09-18T00:18:53;6.53;;;3.25;;
10403;SDS011;5248;47.374;8.486;2023-09-18T00:21:19;4.57;;;3.10;;
10403;SDS011;5248;47.374;8.486;2023-09-18T00:23:46;4.50;;;3.00;;
10403;SDS011;5248;47.374;8.486;2023-09-18T00:26:13;4.57;;;3.25;;
10403;SDS011;5248;47.374;8.486;2023-09-18T00:28:39;5.22;;;3.03;;
10403;SDS011;5248;47.374;8.486;2023-09-18T00:31:05;5.38;;;3.55;;
10403;SDS011;5248;47.374;8.486;2023-09-18T00:33:32;5.53;;;3.17;;
10403;SDS011;5248;47.374;8.486;2023-09-18T00:36:00;6.63;;;3.30;;
10403;SDS011;5248;47.374;8.486;2023-09-18T00:38:26;4.20;;;2.92;;
10403;SDS011;5248;47.374;8.486;2023-09-18T00:40:53;3.90;;;3.50;;
10403;SDS011;5248;47.374;8.486;2023-09-18T00:43:19;4.85;;;3.28;;
10403;SDS011;5248;47.374;8.486;2023-09-18T00:45:46;3.92;;;3.03;;
10403;SDS011;5248;47.374;8.486;2023-09-18T00:48:14;5.68;;;3.38;;
10403;SDS011;5248;47.374;8.486;2023-09-18T00:50:40;4.05;;;3.17;;
10403;SDS011;5248;47.374;8.486;2023-09-18T00:53:08;3.95;;;3.33;;
10403;SDS011;5248;47.374;8.486;2023-09-18T00:55:37;4.70;;;3.50;;
10403;SDS011;5248;47.374;8.486;2023-09-18T00:58:04;3.50;;;3.30;;
10403;SDS011;5248;47.374;8.486;2023-09-18T01:00:31;4.53;;;3.00;;
10403;SDS011;5248;47.374;8.486;2023-09-18T01:02:58;5.53;;;3.08;;
10403;SDS011;5248;47.374;8.486;2023-09-18T01:05:25;5.72;;;3.22;;
10403;SDS011;5248;47.374;8.486;2023-09-18T01:07:51;4.32;;;3.20;;
10403;SDS011;5248;47.374;8.486;2023-09-18T01:10:20;6.55;;;3.40;;
10403;SDS011;5248;47.374;8.486;2023-09-18T01:12:50;4.68;;;3.00;;
10403;SDS011;5248;47.374;8.486;2023-09-18T01:15:22;6.65;;;2.80;;
10403;SDS011;5248;47.374;8.486;2023-09-18T01:17:52;3.15;;;2.85;;
10403;SDS011;5248;47.374;8.486;2023-09-18T01:20:19;3.47;;;3.00;;
10403;SDS011;5248;47.374;8.486;2023-09-18T01:22:48;10.13;;;3.70;;
10403;SDS011;5248;47.374;8.486;2023-09-18T01:25:15;6.22;;;3.25;;
10403;SDS011;5248;47.374;8.486;2023-09-18T01:27:41;4.72;;;2.70;;
10403;SDS011;5248;47.374;8.486;2023-09-18T01:30:08;4.47;;;3.10;;
10403;SDS011;5248;47.374;8.486;2023-09-18T01:32:35;4.18;;;2.75;;
10403;SDS011;5248;47.374;8.486;2023-09-18T01:35:03;4.35;;;3.22;;
10403;SDS011;5248;47.374;8.486;2023-09-18T01:37:32;6.00;;;3.63;;
10403;SDS011;5248;47.374;8.486;2023-09-18T01:40:01;3.65;;;3.35;;
10403;SDS011;5248;47.374;8.486;2023-09-18T01:42:31;6.90;;;3.80;;
10403;SDS011;5248;47.374;8.486;2023-09-18T01:44:58;6.07;;;3.30;;
10403;SDS011;5248;47.374;8.486;2023-09-18T01:47:25;6.65;;;3.42;;
10403;SDS011;5248;47.374;8.486;2023-09-18T01:49:52;6.53;;;3.03;;
10403;SDS011;5248;47.374;8.486;2023-09-18T01:52:18;4.60;;;2.88;;
10403;SDS011;5248;47.374;8.486;2023-09-18T01:54:45;5.30;;;3.15;;
10403;SDS011;5248;47.374;8.486;2023-09-18T01:57:13;4.97;;;2.85;;
10403;SDS011;5248;47.374;8.486;2023-09-18T01:59:39;5.40;;;3.03;;
10403;SDS011;5248;47.374;8.486;2023-09-18T02:02:07;7.60;;;3.10;;
10403;SDS011;5248;47.374;8.486;2023-09-18T02:04:34;6.75;;;2.95;;
10403;SDS011;5248;47.374;8.486;2023-09-18T02:07:01;7.68;;;3.33;;
10403;SDS011;5248;47.374;8.486;2023-09-18T02:09:28;5.47;;;2.90;;
10403;SDS011;5248;47.374;8.486;2023-09-18T02:11:54;7.00;;;3.13;;
10403;SDS011;5248;47.374;8.486;2023-09-18T02:14:22;6.63;;;2.60;;
10403;SDS011;5248;47.374;8.486;2023-09-18T02:16:48;5.00;;;2.75;;
10403;SDS011;5248;47.374;8.486;2023-09-18T02:19:15;4.15;;;2.50;;
10403;SDS011;5248;47.374;8.486;2023-09-18T02:21:42;4.13;;;3.10;;
10403;SDS011;5248;47.374;8.486;2023-09-18T02:24:08;5.13;;;2.63;;
10403;SDS011;5248;47.374;8.486;2023-09-18T02:26:35;6.40;;;3.28;;
10403;SDS011;5248;47.374;8.486;2023-09-18T02:29:02;4.97;;;3.00;;
10403;SDS011;5248;47.374;8.486;2023-09-18T02:31:32;6.65;;;3.50;;
10403;SDS011;5248;47.374;8.486;2023-09-18T02:33:59;3.90;;;3.15;;
10403;SDS011;5248;47.374;8.486;2023-09-18T02:36:25;4.25;;;3.80;;
10403;SDS011;5248;47.374;8.486;2023-09-18T02:38:52;3.92;;;3.58;;
10403;SDS011;5248;47.374;8.486;2023-09-18T02:41:18;4.07;;;3.30;;
10403;SDS011;5248;47.374;8.486;2023-09-18T02:43:44;5.40;;;3.30;;
10403;SDS011;5248;47.374;8.486;2023-09-18T02:46:11;6.13;;;3.30;;
10403;SDS011;5248;47.374;8.486;2023-09-18T02:48:39;3.78;;;3.38;;
10403;SDS011;5248;47.374;8.486;2023-09-18T02:51:05;3.40;;;3.05;;
10403;SDS011;5248;47.374;8.486;2023-09-18T02:53:32;4.30;;;3.40;;
10403;SDS011;5248;47.374;8.486;2023-09-18T02:55:59;3.65;;;3.35;;
10403;SDS011;5248;47.374;8.486;2023-09-18T02:58:26;5.55;;;3.60;;
10403;SDS011;5248;47.374;8.486;2023-09-18T03:00:54;4.75;;;3.30;;
10403;SDS011;5248;47.374;8.486;2023-09-18T03:03:21;3.35;;;2.97;;
10403;SDS011;5248;47.374;8.486;2023-09-18T03:05:49;4.22;;;2.70;;
10403;SDS011;5248;47.374;8.486;2023-09-18T03:08:16;4.68;;;3.08;;
10403;SDS011;5248;47.374;8.486;2023-09-18T03:10:43;4.13;;;3.10;;
10403;SDS011;5248;47.374;8.486;2023-09-18T03:13:10;5.43;;;3.35;;
10403;SDS011;5248;47.374;8.486;2023-09-18T03:15:37;10.57;;;3.78;;
10403;SDS011;5248;47.374;8.486;2023-09-18T03:18:05;7.10;;;3.25;;
10403;SDS011;5248;47.374;8.486;2023-09-18T03:20:32;8.55;;;3.50;;
10403;SDS011;5248;47.374;8.486;2023-09-18T03:23:03;6.28;;;3.65;;
10403;SDS011;5248;47.374;8.486;2023-09-18T03:25:29;8.02;;;3.65;;
10403;SDS011;5248;47.374;8.486;2023-09-18T03:27:56;5.60;;;3.00;;
10403;SDS011;5248;47.374;8.486;2023-09-18T03:30:24;9.52;;;3.40;;
10403;SDS011;5248;47.374;8.486;2023-09-18T03:32:50;8.80;;;3.30;;
10403;SDS011;5248;47.374;8.486;2023-09-18T03:35:17;9.52;;;3.58;;
10403;SDS011;5248;47.374;8.486;2023-09-18T03:37:44;8.57;;;3.47;;
10403;SDS011;5248;47.374;8.486;2023-09-18T03:40:12;7.85;;;3.63;;
10403;SDS011;5248;47.374;8.486;2023-09-18T03:42:38;9.40;;;3.53;;
10403;SDS011;5248;47.374;8.486;2023-09-18T03:45:05;7.40;;;3.25;;
10403;SDS011;5248;47.374;8.486;2023-09-18T03:47:33;7.80;;;3.10;;
10403;SDS011;5248;47.374;8.486;2023-09-18T03:50:00;7.85;;;3.67;;
10403;SDS011;5248;47.374;8.486;2023-09-18T03:52:26;6.22;;;3.42;;
10403;SDS011;5248;47.374;8.486;2023-09-18T03:54:53;9.32;;;3.17;;
10403;SDS011;5248;47.374;8.486;2023-09-18T03:57:21;10.20;;;3.25;;
10403;SDS011;5248;47.374;8.486;2023-09-18T03:59:48;9.48;;;3.28;;
10403;SDS011;5248;47.374;8.486;2023-09-18T04:02:14;5.22;;;2.90;;
10403;SDS011;5248;47.374;8.486;2023-09-18T04:04:40;5.63;;;3.08;;
10403;SDS011;5248;47.374;8.486;2023-09-18T04:07:07;7.50;;;3.20;;
10403;SDS011;5248;47.374;8.486;2023-09-18T04:09:34;5.72;;;3.22;;
10403;SDS011;5248;47.374;8.486;2023-09-18T04:12:02;9.73;;;3.58;;
10403;SDS011;5248;47.374;8.486;2023-09-18T04:14:31;7.05;;;2.88;;
10403;SDS011;5248;47.374;8.486;2023-09-18T04:16:58;7.93;;;3.50;;
10403;SDS011;5248;47.374;8.486;2023-09-18T04:19:25;4.97;;;3.30;;
10403;SDS011;5248;47.374;8.486;2023-09-18T04:21:51;5.82;;;3.17;;
10403;SDS011;5248;47.374;8.486;2023-09-18T04:24:19;6.18;;;3.40;;
10403;SDS011;5248;47.374;8.486;2023-09-18T04:26:45;6.05;;;3.08;;
10403;SDS011;5248;47.374;8.486;2023-09-18T04:29:12;5.85;;;3.03;;
10403;SDS011;5248;47.374;8.486;2023-09-18T04:31:40;5.80;;;3.00;;
10403;SDS011;5248;47.374;8.486;2023-09-18T04:34:06;7.68;;;3.42;;
10403;SDS011;5248;47.374;8.486;2023-09-18T04:36:33;8.43;;;3.60;;
10403;SDS011;5248;47.374;8.486;2023-09-18T04:39:01;9.38;;;3.95;;
10403;SDS011;5248;47.374;8.486;2023-09-18T04:41:29;9.30;;;3.40;;
10403;SDS011;5248;47.374;8.486;2023-09-18T04:43:55;12.43;;;3.40;;
10403;SDS011;5248;47.374;8.486;2023-09-18T04:46:22;8.43;;;3.75;;
10403;SDS011;5248;47.374;8.486;2023-09-18T04:48:51;7.18;;;3.58;;
10403;SDS011;5248;47.374;8.486;2023-09-18T04:51:17;7.35;;;3.60;;
10403;SDS011;5248;47.374;8.486;2023-09-18T04:53:44;8.65;;;3.92;;
10403;SDS011;5248;47.374;8.486;2023-09-18T04:56:10;8.40;;;3.33;;
10403;SDS011;5248;47.374;8.486;2023-09-18T04:58:37;6.85;;;3.85;;
10403;SDS011;5248;47.374;8.486;2023-09-18T05:01:04;8.07;;;3.75;;
10403;SDS011;5248;47.374;8.486;2023-09-18T05:03:33;6.70;;;3.78;;
10403;SDS011;5248;47.374;8.486;2023-09-18T05:06:04;8.50;;;3.58;;
10403;SDS011;5248;47.374;8.486;2023-09-18T05:08:30;9.00;;;3.53;;
10403;SDS011;5248;47.374;8.486;2023-09-18T05:10:57;8.65;;;4.00;;
10403;SDS011;5248;47.374;8.486;2023-09-18T05:13:24;7.30;;;3.55;;
10403;SDS011;5248;47.374;8.486;2023-09-18T05:15:51;9.73;;;3.72;;
10403;SDS011;5248;47.374;8.486;2023-09-18T05:18:18;8.63;;;4.07;;
10403;SDS011;5248;47.374;8.486;2023-09-18T05:20:45;8.65;;;4.10;;
10403;SDS011;5248;47.374;8.486;2023-09-18T05:23:13;8.57;;;3.58;;
10403;SDS011;5248;47.374;8.486;2023-09-18T05:25:39;6.97;;;3.58;;
10403;SDS011;5248;47.374;8.486;2023-09-18T05:28:09;6.63;;;3.80;;
10403;SDS011;5248;47.374;8.486;2023-09-18T05:30:36;8.52;;;4.13;;
10403;SDS011;5248;47.374;8.486;2023-09-18T05:33:04;6.38;;;3.58;;
10403;SDS011;5248;47.374;8.486;2023-09-18T05:35:32;12.05;;;6.82;;
10403;SDS011;5248;47.374;8.486;2023-09-18T05:37:59;9.18;;;6.18;;
10403;SDS011;5248;47.374;8.486;2023-09-18T05:40:27;8.27;;;4.65;;
10403;SDS011;5248;47.374;8.486;2023-09-18T05:42:54;14.60;;;4.25;;
10403;SDS011;5248;47.374;8.486;2023-09-18T05:45:20;10.40;;;4.10;;
10403;SDS011;5248;47.374;8.486;2023-09-18T05:47:47;8.98;;;3.85;;
10403;SDS011;5248;47.374;8.486;2023-09-18T05:50:13;6.63;;;3.90;;
10403;SDS011;5248;47.374;8.486;2023-09-18T05:52:42;6.25;;;3.90;;
10403;SDS011;5248;47.374;8.486;2023-09-18T05:55:09;8.30;;;3.25;;
10403;SDS011;5248;47.374;8.486;2023-09-18T05:57:37;12.30;;;4.05;;
10403;SDS011;5248;47.374;8.486;2023-09-18T06:00:04;7.95;;;3.92;;
10403;SDS011;5248;47.374;8.486;2023-09-18T06:02:31;8.00;;;3.72;;
10403;SDS011;5248;47.374;8.486;2023-09-18T06:04:58;8.05;;;3.67;;
10403;SDS011;5248;47.374;8.486;2023-09-18T06:07:32;7.55;;;4.03;;
10403;SDS011;5248;47.374;8.486;2023-09-18T06:10:00;6.63;;;3.92;;
10403;SDS011;5248;47.374;8.486;2023-09-18T06:12:27;6.15;;;4.00;;
10403;SDS011;5248;47.374;8.486;2023-09-18T06:14:54;9.48;;;3.97;;
10403;SDS011;5248;47.374;8.486;2023-09-18T06:17:21;4.50;;;3.58;;
10403;SDS011;5248;47.374;8.486;2023-09-18T06:19:47;7.22;;;3.80;;
10403;SDS011;5248;47.374;8.486;2023-09-18T06:22:15;6.10;;;3.30;;
10403;SDS011;5248;47.374;8.486;2023-09-18T06:24:41;6.07;;;3.72;;
10403;SDS011;5248;47.374;8.486;2023-09-18T06:27:08;8.02;;;3.78;;
10403;SDS011;5248;47.374;8.486;2023-09-18T06:29:36;6.28;;;3.95;;
10403;SDS011;5248;47.374;8.486;2023-09-18T06:32:04;8.93;;;3.72;;
10403;SDS011;5248;47.374;8.486;2023-09-18T06:34:33;9.70;;;3.55;;
10403;SDS011;5248;47.374;8.486;2023-09-18T06:37:00;6.93;;;3.45;;
10403;SDS011;5248;47.374;8.486;2023-09-18T06:39:28;7.03;;;3.60;;
10403;SDS011;5248;47.374;8.486;2023-09-18T06:41:55;6.50;;;3.67;;
10403;SDS011;5248;47.374;8.486;2023-09-18T06:44:21;7.50;;;4.05;;
10403;SDS011;5248;47.374;8.486;2023-09-18T06:46:48;7.45;;;3.90;;
10403;SDS011;5248;47.374;8.486;2023-09-18T06:49:16;9.80;;;4.47;;
10403;SDS011;5248;47.374;8.486;2023-09-18T06:51:42;11.23;;;4.00;;
10403;SDS011;5248;47.374;8.486;2023-09-18T06:54:09;7.53;;;3.85;;
10403;SDS011;5248;47.374;8.486;2023-09-18T06:56:36;6.30;;;3.22;;
10403;SDS011;5248;47.374;8.486;2023-09-18T06:59:04;7.20;;;3.38;;
10403;SDS011;5248;47.374;8.486;2023-09-18T07:01:30;7.97;;;3.65;;
10403;SDS011;5248;47.374;8.486;2023-09-18T07:03:58;7.45;;;3.85;;
10403;SDS011;5248;47.374;8.486;2023-09-18T07:06:26;8.35;;;3.17;;
10403;SDS011;5248;47.374;8.486;2023-09-18T07:08:52;7.20;;;3.67;;
10403;SDS011;5248;47.374;8.486;2023-09-18T07:11:19;7.85;;;3.45;;
10403;SDS011;5248;47.374;8.486;2023-09-18T07:13:45;6.35;;;3.60;;
10403;SDS011;5248;47.374;8.486;2023-09-18T07:16:12;8.82;;;3.55;;
10403;SDS011;5248;47.374;8.486;2023-09-18T07:18:38;7.15;;;3.80;;
10403;SDS011;5248;47.374;8.486;2023-09-18T07:21:05;8.98;;;3.50;;
10403;SDS011;5248;47.374;8.486;2023-09-18T07:23:33;10.45;;;4.00;;
10403;SDS011;5248;47.374;8.486;2023-09-18T07:26:02;8.23;;;3.90;;
10403;SDS011;5248;47.374;8.486;2023-09-18T07:28:28;6.22;;;3.50;;
10403;SDS011;5248;47.374;8.486;2023-09-18T07:30:55;8.80;;;3.70;;
10403;SDS011;5248;47.374;8.486;2023-09-18T07:33:21;8.85;;;3.53;;
10403;SDS011;5248;47.374;8.486;2023-09-18T07:35:48;6.07;;;3.63;;
10403;SDS011;5248;47.374;8.486;2023-09-18T07:38:16;8.98;;;3.80;;
10403;SDS011;5248;47.374;8.486;2023-09-18T07:40:47;6.68;;;3.55;;
10403;SDS011;5248;47.374;8.486;2023-09-18T07:43:14;7.07;;;3.70;;
10403;SDS011;5248;47.374;8.486;2023-09-18T07:45:40;7.57;;;3.60;;
10403;SDS011;5248;47.374;8.486;2023-09-18T07:48:07;5.55;;;3.42;;
10403;SDS011;5248;47.374;8.486;2023-09-18T07:50:34;8.13;;;3.75;;
10403;SDS011;5248;47.374;8.486;2023-09-18T07:53:03;9.70;;;3.30;;
10403;SDS011;5248;47.374;8.486;2023-09-18T07:55:29;5.88;;;3.00;;
10403;SDS011;5248;47.374;8.486;2023-09-18T07:57:57;5.70;;;3.10;;
10403;SDS011;5248;47.374;8.486;2023-09-18T08:00:24;6.80;;;3.70;;
10403;SDS011;5248;47.374;8.486;2023-09-18T08:02:50;8.23;;;2.97;;
10403;SDS011;5248;47.374;8.486;2023-09-18T08:05:19;6.03;;;3.20;;
10403;SDS011;5248;47.374;8.486;2023-09-18T08:07:46;5.88;;;2.90;;
10403;SDS011;5248;47.374;8.486;2023-09-18T08:10:13;5.32;;;2.78;;
10403;SDS011;5248;47.374;8.486;2023-09-18T08:12:39;5.05;;;3.03;;
10403;SDS011;5248;47.374;8.486;2023-09-18T08:15:07;4.38;;;2.80;;
10403;SDS011;5248;47.374;8.486;2023-09-18T08:17:36;8.65;;;3.30;;
10403;SDS011;5248;47.374;8.486;2023-09-18T08:20:02;6.90;;;2.85;;
10403;SDS011;5248;47.374;8.486;2023-09-18T08:22:35;6.53;;;2.50;;
10403;SDS011;5248;47.374;8.486;2023-09-18T08:25:05;8.15;;;3.00;;
10403;SDS011;5248;47.374;8.486;2023-09-18T08:27:36;4.63;;;2.70;;
10403;SDS011;5248;47.374;8.486;2023-09-18T08:30:08;2.67;;;2.28;;
10403;SDS011;5248;47.374;8.486;2023-09-18T08:32:36;6.70;;;2.45;;
10403;SDS011;5248;47.374;8.486;2023-09-18T08:35:02;6.82;;;2.95;;
10403;SDS011;5248;47.374;8.486;2023-09-18T08:37:29;4.45;;;3.03;;
10403;SDS011;5248;47.374;8.486;2023-09-18T08:39:56;5.47;;;2.85;;
10403;SDS011;5248;47.374;8.486;2023-09-18T08:42:22;3.33;;;1.88;;
10403;SDS011;5248;47.374;8.486;2023-09-18T08:44:51;6.55;;;2.50;;
10403;SDS011;5248;47.374;8.486;2023-09-18T08:47:21;2.40;;;1.83;;
10403;SDS011;5248;47.374;8.486;2023-09-18T08:49:49;3.17;;;1.95;;
10403;SDS011;5248;47.374;8.486;2023-09-18T08:52:19;3.70;;;1.70;;
10403;SDS011;5248;47.374;8.486;2023-09-18T08:54:45;1.80;;;1.33;;
10403;SDS011;5248;47.374;8.486;2023-09-18T08:57:11;1.92;;;1.40;;
10403;SDS011;5248;47.374;8.486;2023-09-18T08:59:38;2.75;;;1.65;;
10403;SDS011;5248;47.374;8.486;2023-09-18T09:02:05;2.53;;;1.42;;
10403;SDS011;5248;47.374;8.486;2023-09-18T09:04:33;4.65;;;1.77;;
10403;SDS011;5248;47.374;8.486;2023-09-18T09:07:00;3.15;;;1.60;;
10403;SDS011;5248;47.374;8.486;2023-09-18T09:09:26;3.60;;;1.55;;
10403;SDS011;5248;47.374;8.486;2023-09-18T09:11:53;2.10;;;2.00;;
10403;SDS011;5248;47.374;8.486;2023-09-18T09:14:19;3.50;;;1.30;;
10403;SDS011;5248;47.374;8.486;2023-09-18T09:16:53;2.33;;;1.40;;
10403;SDS011;5248;47.374;8.486;2023-09-18T09:19:27;3.97;;;1.23;;
10403;SDS011;5248;47.374;8.486;2023-09-18T09:21:56;2.53;;;1.70;;
10403;SDS011;5248;47.374;8.486;2023-09-18T09:24:35;4.18;;;1.50;;
10403;SDS011;5248;47.374;8.486;2023-09-18T09:27:02;1.90;;;1.63;;
10403;SDS011;5248;47.374;8.486;2023-09-18T09:29:29;3.58;;;1.80;;
10403;SDS011;5248;47.374;8.486;2023-09-18T09:31:56;1.92;;;1.35;;
10403;SDS011;5248;47.374;8.486;2023-09-18T09:34:27;1.35;;;1.00;;
10403;SDS011;5248;47.374;8.486;2023-09-18T09:36:57;2.78;;;1.40;;
10403;SDS011;5248;47.374;8.486;2023-09-18T09:39:26;1.25;;;1.15;;
10403;SDS011;5248;47.374;8.486;2023-09-18T09:41:52;1.75;;;1.23;;
10403;SDS011;5248;47.374;8.486;2023-09-18T09:44:19;2.92;;;1.30;;
10403;SDS011;5248;47.374;8.486;2023-09-18T09:46:46;3.40;;;1.48;;
10403;SDS011;5248;47.374;8.486;2023-09-18T09:49:13;1.60;;;1.05;;
10403;SDS011;5248;47.374;8.486;2023-09-18T09:51:41;1.65;;;1.00;;
10403;SDS011;5248;47.374;8.486;2023-09-18T09:54:09;2.53;;;1.45;;
10403;SDS011;5248;47.374;8.486;2023-09-18T09:56:40;3.63;;;1.38;;
10403;SDS011;5248;47.374;8.486;2023-09-18T09:59:10;2.03;;;1.10;;
10403;SDS011;5248;47.374;8.486;2023-09-18T10:01:37;2.58;;;1.23;;
10403;SDS011;5248;47.374;8.486;2023-09-18T10:04:09;2.60;;;1.23;;
10403;SDS011;5248;47.374;8.486;2023-09-18T10:06:36;2.55;;;1.67;;
10403;SDS011;5248;47.374;8.486;2023-09-18T10:09:03;1.77;;;1.20;;
10403;SDS011;5248;47.374;8.486;2023-09-18T10:11:33;1.95;;;1.30;;
10403;SDS011;5248;47.374;8.486;2023-09-18T10:14:02;2.33;;;1.30;;
10403;SDS011;5248;47.374;8.486;2023-09-18T10:16:32;1.75;;;1.30;;
10403;SDS011;5248;47.374;8.486;2023-09-18T10:19:04;3.70;;;2.67;;
10403;SDS011;5248;47.374;8.486;2023-09-18T10:21:37;4.47;;;2.33;;
10403;SDS011;5248;47.374;8.486;2023-09-18T10:24:08;2.05;;;1.50;;
10403;SDS011;5248;47.374;8.486;2023-09-18T10:26:41;2.00;;;1.13;;
10403;SDS011;5248;47.374;8.486;2023-09-18T10:29:12;1.23;;;1.00;;
10403;SDS011;5248;47.374;8.486;2023-09-18T10:31:39;1.20;;;1.10;;
10403;SDS011;5248;47.374;8.486;2023-09-18T10:34:07;1.38;;;1.27;;
10403;SDS011;5248;47.374;8.486;2023-09-18T10:36:34;2.33;;;1.40;;
10403;SDS011;5248;47.374;8.486;2023-09-18T10:39:01;1.98;;;1.08;;
10403;SDS011;5248;47.374;8.486;2023-09-18T10:41:33;2.75;;;1.35;;
10403;SDS011;5248;47.374;8.486;2023-09-18T10:44:01;1.08;;;0.98;;
10403;SDS011;5248;47.374;8.486;2023-09-18T10:46:29;2.85;;;1.05;;
10403;SDS011;5248;47.374;8.486;2023-09-18T10:48:56;2.22;;;1.42;;
10403;SDS011;5248;47.374;8.486;2023-09-18T10:51:23;1.58;;;0.88;;
10403;SDS011;5248;47.374;8.486;2023-09-18T10:53:50;2.53;;;1.48;;
10403;SDS011;5248;47.374;8.486;2023-09-18T10:56:17;2.15;;;1.45;;
10403;SDS011;5248;47.374;8.486;2023-09-18T10:58:45;2.83;;;1.40;;
10403;SDS011;5248;47.374;8.486;2023-09-18T11:01:13;1.02;;;0.95;;
10403;SDS011;5248;47.374;8.486;2023-09-18T11:03:39;1.05;;;0.80;;
10403;SDS011;5248;47.374;8.486;2023-09-18T11:06:06;1.67;;;1.10;;
10403;SDS011;5248;47.374;8.486;2023-09-18T11:08:35;1.88;;;0.80;;
10403;SDS011;5248;47.374;8.486;2023-09-18T11:11:11;2.58;;;1.00;;
10403;SDS011;5248;47.374;8.486;2023-09-18T11:13:41;2.17;;;1.48;;
10403;SDS011;5248;47.374;8.486;2023-09-18T11:16:34;3.05;;;1.98;;
10403;SDS011;5248;47.374;8.486;2023-09-18T11:19:05;2.15;;;1.30;;
10403;SDS011;5248;47.374;8.486;2023-09-18T11:21:35;2.08;;;0.98;;
10403;SDS011;5248;47.374;8.486;2023-09-18T11:24:03;2.10;;;1.17;;
10403;SDS011;5248;47.374;8.486;2023-09-18T11:26:30;2.42;;;1.20;;
10403;SDS011;5248;47.374;8.486;2023-09-18T11:28:58;1.95;;;1.02;;
10403;SDS011;5248;47.374;8.486;2023-09-18T11:31:43;1.60;;;0.95;;
10403;SDS011;5248;47.374;8.486;2023-09-18T11:34:11;1.95;;;1.23;;
10403;SDS011;5248;47.374;8.486;2023-09-18T11:36:38;1.55;;;1.00;;
10403;SDS011;5248;47.374;8.486;2023-09-18T11:39:04;2.20;;;1.38;;
10403;SDS011;5248;47.374;8.486;2023-09-18T11:41:32;2.28;;;1.13;;
10403;SDS011;5248;47.374;8.486;2023-09-18T11:46:59;1.92;;;1.13;;
10403;SDS011;5248;47.374;8.486;2023-09-18T11:49:26;0.93;;;0.90;;
10403;SDS011;5248;47.374;8.486;2023-09-18T11:51:53;1.20;;;1.10;;
10403;SDS011;5248;47.374;8.486;2023-09-18T11:54:20;1.05;;;0.95;;
10403;SDS011;5248;47.374;8.486;2023-09-18T11:56:47;1.83;;;1.38;;
10403;SDS011;5248;47.374;8.486;2023-09-18T11:59:13;1.08;;;1.05;;
10403;SDS011;5248;47.374;8.486;2023-09-18T12:01:40;1.17;;;1.00;;
10403;SDS011;5248;47.374;8.486;2023-09-18T12:04:12;0.82;;;0.82;;
10403;SDS011;5248;47.374;8.486;2023-09-18T12:06:39;1.98;;;1.25;;
10403;SDS011;5248;47.374;8.486;2023-09-18T12:09:07;0.88;;;0.82;;
10403;SDS011;5248;47.374;8.486;2023-09-18T12:11:34;1.33;;;1.15;;
10403;SDS011;5248;47.374;8.486;2023-09-18T12:14:01;1.20;;;1.05;;
10403;SDS011;5248;47.374;8.486;2023-09-18T12:16:29;1.52;;;0.95;;
10403;SDS011;5248;47.374;8.486;2023-09-18T12:18:55;1.58;;;1.15;;
10403;SDS011;5248;47.374;8.486;2023-09-18T12:21:25;1.70;;;1.45;;
10403;SDS011;5248;47.374;8.486;2023-09-18T12:23:52;2.78;;;1.35;;
10403;SDS011;5248;47.374;8.486;2023-09-18T12:26:18;1.10;;;0.95;;
10403;SDS011;5248;47.374;8.486;2023-09-18T12:28:45;1.77;;;1.50;;
10403;SDS011;5248;47.374;8.486;2023-09-18T12:31:12;1.27;;;1.17;;
10403;SDS011;5248;47.374;8.486;2023-09-18T12:33:39;1.42;;;1.27;;
10403;SDS011;5248;47.374;8.486;2023-09-18T12:36:07;1.95;;;1.20;;
10403;SDS011;5248;47.374;8.486;2023-09-18T12:38:35;1.40;;;1.15;;
10403;SDS011;5248;47.374;8.486;2023-09-18T12:41:02;2.17;;;1.52;;
10403;SDS011;5248;47.374;8.486;2023-09-18T12:43:33;2.30;;;1.30;;
10403;SDS011;5248;47.374;8.486;2023-09-18T12:46:02;1.17;;;1.10;;
10403;SDS011;5248;47.374;8.486;2023-09-18T12:48:30;1.20;;;1.08;;
10403;SDS011;5248;47.374;8.486;2023-09-18T12:51:01;4.32;;;1.90;;
10403;SDS011;5248;47.374;8.486;2023-09-18T12:53:28;2.20;;;2.00;;
10403;SDS011;5248;47.374;8.486;2023-09-18T12:56:04;1.73;;;1.30;;
10403;SDS011;5248;47.374;8.486;2023-09-18T12:58:32;1.35;;;1.13;;
10403;SDS011;5248;47.374;8.486;2023-09-18T13:01:03;2.28;;;1.35;;
10403;SDS011;5248;47.374;8.486;2023-09-18T13:03:32;2.22;;;1.38;;
10403;SDS011;5248;47.374;8.486;2023-09-18T13:06:06;1.23;;;1.13;;
10403;SDS011;5248;47.374;8.486;2023-09-18T13:08:33;0.95;;;0.88;;
10403;SDS011;5248;47.374;8.486;2023-09-18T13:11:01;1.52;;;0.80;;
10403;SDS011;5248;47.374;8.486;2023-09-18T13:13:29;1.00;;;1.00;;
10403;SDS011;5248;47.374;8.486;2023-09-18T13:15:57;1.13;;;0.85;;
10403;SDS011;5248;47.374;8.486;2023-09-18T13:18:24;0.80;;;0.80;;
10403;SDS011;5248;47.374;8.486;2023-09-18T13:20:51;1.45;;;0.90;;
10403;SDS011;5248;47.374;8.486;2023-09-18T13:23:18;1.02;;;0.93;;
10403;SDS011;5248;47.374;8.486;2023-09-18T13:25:45;1.17;;;0.65;;
10403;SDS011;5248;47.374;8.486;2023-09-18T13:28:13;2.75;;;2.50;;
10403;SDS011;5248;47.374;8.486;2023-09-18T13:30:41;2.30;;;1.70;;
10403;SDS011;5248;47.374;8.486;2023-09-18T13:33:08;1.30;;;1.20;;
10403;SDS011;5248;47.374;8.486;2023-09-18T13:35:37;1.30;;;1.20;;
10403;SDS011;5248;47.374;8.486;2023-09-18T13:38:04;1.17;;;1.00;;
10403;SDS011;5248;47.374;8.486;2023-09-18T13:40:33;1.10;;;1.10;;
10403;SDS011;5248;47.374;8.486;2023-09-18T13:43:01;1.38;;;0.90;;
10403;SDS011;5248;47.374;8.486;2023-09-18T13:45:28;1.55;;;1.05;;
10403;SDS011;5248;47.374;8.486;2023-09-18T13:47:56;1.63;;;0.70;;
10403;SDS011;5248;47.374;8.486;2023-09-18T13:50:23;0.93;;;0.77;;
10403;SDS011;5248;47.374;8.486;2023-09-18T13:52:49;1.67;;;0.85;;
10403;SDS011;5248;47.374;8.486;2023-09-18T13:55:16;1.48;;;1.05;;
10403;SDS011;5248;47.374;8.486;2023-09-18T13:57:43;1.85;;;0.85;;
10403;SDS011;5248;47.374;8.486;2023-09-18T14:00:09;1.48;;;0.82;;
10403;SDS011;5248;47.374;8.486;2023-09-18T14:02:37;1.00;;;0.80;;
10403;SDS011;5248;47.374;8.486;2023-09-18T14:05:05;1.15;;;1.05;;
10403;SDS011;5248;47.374;8.486;2023-09-18T14:07:33;1.23;;;0.90;;
10403;SDS011;5248;47.374;8.486;2023-09-18T14:09:59;0.75;;;0.75;;
10403;SDS011;5248;47.374;8.486;2023-09-18T14:12:28;1.48;;;0.90;;
10403;SDS011;5248;47.374;8.486;2023-09-18T14:14:55;1.52;;;1.02;;
10403;SDS011;5248;47.374;8.486;2023-09-18T14:17:21;0.95;;;0.85;;
10403;SDS011;5248;47.374;8.486;2023-09-18T14:19:48;2.20;;;0.93;;
10403;SDS011;5248;47.374;8.486;2023-09-18T14:22:16;1.25;;;0.80;;
10403;SDS011;5248;47.374;8.486;2023-09-18T14:24:43;2.03;;;1.00;;
10403;SDS011;5248;47.374;8.486;2023-09-18T14:27:09;1.13;;;1.02;;
10403;SDS011;5248;47.374;8.486;2023-09-18T14:29:36;1.58;;;0.85;;
10403;SDS011;5248;47.374;8.486;2023-09-18T14:32:02;0.95;;;0.77;;
10403;SDS011;5248;47.374;8.486;2023-09-18T14:34:30;2.92;;;0.95;;
10403;SDS011;5248;47.374;8.486;2023-09-18T14:37:00;1.20;;;1.00;;
10403;SDS011;5248;47.374;8.486;2023-09-18T14:39:30;0.93;;;0.77;;
10403;SDS011;5248;47.374;8.486;2023-09-18T14:41:56;1.50;;;0.90;;
10403;SDS011;5248;47.374;8.486;2023-09-18T14:44:23;1.60;;;0.90;;
10403;SDS011;5248;47.374;8.486;2023-09-18T14:46:50;1.58;;;1.27;;
10403;SDS011;5248;47.374;8.486;2023-09-18T14:49:16;2.25;;;1.10;;
10403;SDS011;5248;47.374;8.486;2023-09-18T14:51:42;1.65;;;1.20;;
10403;SDS011;5248;47.374;8.486;2023-09-18T14:54:09;1.30;;;1.20;;
10403;SDS011;5248;47.374;8.486;2023-09-18T14:56:37;2.45;;;1.00;;
10403;SDS011;5248;47.374;8.486;2023-09-18T14:59:05;1.77;;;1.17;;
10403;SDS011;5248;47.374;8.486;2023-09-18T15:01:32;1.42;;;1.00;;
10403;SDS011;5248;47.374;8.486;2023-09-18T15:03:59;1.73;;;1.25;;
10403;SDS011;5248;47.374;8.486;2023-09-18T15:06:25;2.05;;;0.90;;